createdAt,value
2023-03-11T00:02:35.101Z,4.20
2023-03-11T00:05:40.214Z,4.35
2023-03-11T00:08:42.401Z,4.32
2023-03-11T00:11:44.080Z,4.80
2023-03-11T00:14:45.772Z,5.03
2023-03-11T00:17:48.570Z,4.57
2023-03-11T00:20:50.217Z,4.37
2023-03-11T00:23:51.978Z,5.87
2023-03-11T00:26:53.769Z,4.50
2023-03-11T00:29:55.410Z,4.95
2023-03-11T00:32:58.516Z,4.60
2023-03-11T00:36:00.210Z,4.72
2023-03-11T00:39:06.691Z,4.37
2023-03-11T00:42:08.406Z,4.35
2023-03-11T00:45:10.524Z,4.10
2023-03-11T00:48:13.916Z,4.20
2023-03-11T00:51:16.362Z,4.37
2023-03-11T00:54:18.141Z,3.90
2023-03-11T00:57:19.772Z,3.95
2023-03-11T01:00:23.287Z,4.00
2023-03-11T01:03:24.950Z,3.00
2023-03-11T01:06:32.690Z,3.17
2023-03-11T01:09:40.992Z,2.80
2023-03-11T01:12:43.441Z,3.05
2023-03-11T01:15:45.166Z,3.87
2023-03-11T01:18:47.265Z,2.58
2023-03-11T01:21:48.907Z,1.67
2023-03-11T01:24:50.684Z,1.35
2023-03-11T01:27:52.491Z,1.52
2023-03-11T01:30:54.157Z,2.03
2023-03-11T01:33:55.815Z,3.05
2023-03-11T01:36:57.418Z,1.12
2023-03-11T01:39:59.042Z,1.65
2023-03-11T01:43:01.877Z,1.10
2023-03-11T01:46:09.622Z,0.82
2023-03-11T01:49:13.102Z,1.00
2023-03-11T01:52:14.775Z,0.80
2023-03-11T01:55:18.758Z,0.93
2023-03-11T01:58:34.311Z,0.85
2023-03-11T02:01:43.553Z,0.70
2023-03-11T02:04:46.540Z,0.70
2023-03-11T02:07:50.820Z,0.65
2023-03-11T02:10:54.233Z,0.70
2023-03-11T02:14:00.442Z,0.80
2023-03-11T02:17:02.182Z,0.80
2023-03-11T02:20:06.744Z,0.70
2023-03-11T02:23:08.794Z,0.70
2023-03-11T02:26:30.427Z,0.70
2023-03-11T02:29:33.334Z,0.70
2023-03-11T02:32:35.418Z,0.70
2023-03-11T02:35:37.244Z,0.70
2023-03-11T02:38:38.915Z,0.85
2023-03-11T02:41:45.947Z,0.80
2023-03-11T02:45:07.272Z,0.70
2023-03-11T02:48:11.851Z,0.60
2023-03-11T02:51:13.801Z,0.60
2023-03-11T02:54:15.577Z,1.15
2023-03-11T02:57:17.241Z,0.55
2023-03-11T03:00:19.312Z,0.73
2023-03-11T03:03:20.979Z,0.60
2023-03-11T03:06:22.883Z,0.80
2023-03-11T03:09:24.571Z,0.90
2023-03-11T03:12:26.255Z,0.80
2023-03-11T03:15:27.945Z,0.68
2023-03-11T03:18:29.791Z,0.80
2023-03-11T03:21:31.442Z,0.75
2023-03-11T03:24:33.133Z,0.60
2023-03-11T03:27:34.933Z,0.50
2023-03-11T03:30:36.604Z,0.68
2023-03-11T03:33:38.622Z,0.70
2023-03-11T03:36:40.385Z,0.70
2023-03-11T03:39:42.047Z,0.75
2023-03-11T03:42:43.671Z,0.73
2023-03-11T03:45:45.426Z,0.85
2023-03-11T03:48:47.409Z,0.75
2023-03-11T03:51:49.102Z,0.90
2023-03-11T03:54:50.769Z,1.30
2023-03-11T03:57:52.521Z,1.30
2023-03-11T04:00:58.791Z,1.00
2023-03-11T04:04:00.454Z,0.70
2023-03-11T04:07:05.666Z,1.15
2023-03-11T04:10:07.797Z,0.62
2023-03-11T04:13:09.485Z,0.70
2023-03-11T04:16:17.273Z,1.00
2023-03-11T04:19:18.991Z,0.70
2023-03-11T04:22:20.660Z,0.82
2023-03-11T04:25:22.315Z,0.77
2023-03-11T04:28:23.971Z,0.82
2023-03-11T04:31:25.674Z,0.77
2023-03-11T04:34:27.332Z,0.85
2023-03-11T04:37:29.560Z,0.80
2023-03-11T04:40:31.313Z,1.00
2023-03-11T04:43:34.050Z,0.70
2023-03-11T04:46:35.883Z,0.90
2023-03-11T04:49:37.787Z,1.10
2023-03-11T04:52:39.413Z,1.10
2023-03-11T04:55:41.573Z,0.95
2023-03-11T04:58:43.205Z,0.80
2023-03-11T05:01:44.870Z,0.82
2023-03-11T05:04:46.718Z,0.82
2023-03-11T05:07:49.248Z,0.50
2023-03-11T05:10:53.136Z,0.90
2023-03-11T05:13:54.806Z,0.75
2023-03-11T05:16:56.622Z,0.60
2023-03-11T05:19:58.247Z,0.70
2023-03-11T05:22:59.899Z,0.90
2023-03-11T05:26:01.566Z,0.68
2023-03-11T05:29:03.257Z,0.80
2023-03-11T05:32:05.428Z,0.82
2023-03-11T05:35:07.838Z,0.70
2023-03-11T05:38:09.471Z,0.70
2023-03-11T05:41:11.128Z,0.95
2023-03-11T05:44:12.755Z,0.62
2023-03-11T05:47:14.425Z,0.57
2023-03-11T05:50:16.071Z,0.90
2023-03-11T05:53:17.837Z,1.00
2023-03-11T05:56:22.348Z,0.70
2023-03-11T05:59:24.096Z,1.10
2023-03-11T06:02:25.885Z,1.02
2023-03-11T06:05:27.643Z,1.05
2023-03-11T06:08:30.819Z,1.10
2023-03-11T06:11:32.596Z,0.70
2023-03-11T06:14:34.475Z,0.80
2023-03-11T06:17:36.179Z,1.27
2023-03-11T06:20:38.022Z,0.93
2023-03-11T06:23:39.736Z,0.98
2023-03-11T06:26:41.485Z,0.77
2023-03-11T06:29:43.135Z,1.17
2023-03-11T06:32:46.528Z,1.00
2023-03-11T06:35:59.764Z,0.90
2023-03-11T06:39:01.459Z,0.70
2023-03-11T06:42:03.364Z,1.15
2023-03-11T06:45:05.437Z,0.95
2023-03-11T06:48:07.079Z,1.27
2023-03-11T06:51:10.379Z,0.88
2023-03-11T06:54:12.082Z,1.00
2023-03-11T06:57:13.741Z,0.98
2023-03-11T07:00:16.460Z,0.80
2023-03-11T07:03:18.216Z,0.98
2023-03-11T07:06:23.404Z,1.23
2023-03-11T07:09:25.957Z,1.30
2023-03-11T07:12:27.625Z,0.70
2023-03-11T07:15:29.435Z,0.93
2023-03-11T07:18:31.546Z,1.02
2023-03-11T07:21:33.262Z,1.00
2023-03-11T07:24:34.930Z,1.10
2023-03-11T07:27:36.609Z,0.90
2023-03-11T07:30:39.399Z,0.93
2023-03-11T07:33:41.101Z,1.83
2023-03-11T07:36:42.967Z,2.37
2023-03-11T07:39:44.681Z,1.30
2023-03-11T07:42:46.324Z,1.00
2023-03-11T07:45:48.060Z,1.05
2023-03-11T07:48:51.557Z,0.88
2023-03-11T07:51:53.186Z,0.93
2023-03-11T07:54:55.079Z,1.00
2023-03-11T07:57:56.892Z,1.10
2023-03-11T08:01:10.401Z,0.90
2023-03-11T08:04:14.326Z,0.93
2023-03-11T08:07:16.332Z,0.80
2023-03-11T08:10:18.093Z,1.00
2023-03-11T08:13:20.563Z,0.90
2023-03-11T08:16:22.732Z,0.80
2023-03-11T08:19:24.971Z,0.90
2023-03-11T08:22:26.653Z,4.12
2023-03-11T08:25:28.326Z,2.60
2023-03-11T08:28:30.005Z,3.60
2023-03-11T08:31:35.037Z,2.40
2023-03-11T08:34:39.520Z,2.55
2023-03-11T08:37:41.343Z,1.00
2023-03-11T08:40:43.036Z,2.90
2023-03-11T08:43:44.888Z,1.20
2023-03-11T08:46:46.754Z,1.00
2023-03-11T08:49:48.554Z,1.15
2023-03-11T08:52:50.264Z,0.90
2023-03-11T08:55:53.097Z,1.40
2023-03-11T08:58:54.759Z,0.90
2023-03-11T09:01:56.849Z,1.00
2023-03-11T09:04:58.608Z,1.83
2023-03-11T09:08:00.375Z,2.22
2023-03-11T09:11:02.263Z,0.98
2023-03-11T09:14:04.831Z,0.70
2023-03-11T09:17:07.210Z,2.53
2023-03-11T09:20:09.500Z,0.90
2023-03-11T09:23:14.310Z,1.50
2023-03-11T09:26:16.139Z,0.88
2023-03-11T09:29:17.793Z,0.80
2023-03-11T09:32:19.482Z,1.52
2023-03-11T09:35:21.156Z,2.15
2023-03-11T09:38:22.844Z,0.82
2023-03-11T09:41:57.101Z,0.75
2023-03-11T09:45:03.802Z,1.10
2023-03-11T09:48:31.774Z,1.50
2023-03-11T09:51:38.616Z,1.55
2023-03-11T09:54:45.280Z,0.82
2023-03-11T09:57:48.365Z,1.48
2023-03-11T10:00:52.141Z,1.33
2023-03-11T10:03:57.908Z,1.15
2023-03-11T10:07:02.281Z,1.12
2023-03-11T10:10:04.291Z,0.88
2023-03-11T10:13:55.320Z,1.40
2023-03-11T10:17:01.134Z,0.90
2023-03-11T10:20:24.349Z,1.10
2023-03-11T10:23:51.550Z,2.10
2023-03-11T10:27:00.173Z,1.08
2023-03-11T10:30:23.458Z,1.40
2023-03-11T10:33:35.649Z,1.17
2023-03-11T10:36:51.438Z,1.95
2023-03-11T10:39:53.504Z,4.03
2023-03-11T10:42:59.559Z,4.32
2023-03-11T10:46:07.630Z,6.22
2023-03-11T10:49:15.843Z,1.55
2023-03-11T10:52:17.585Z,1.60
2023-03-11T10:55:20.020Z,0.93
2023-03-11T10:58:24.264Z,0.90
2023-03-11T11:01:28.924Z,1.20
2023-03-11T11:04:41.150Z,1.15
2023-03-11T11:07:44.094Z,1.33
2023-03-11T11:10:55.172Z,1.67
2023-03-11T11:13:58.983Z,1.02
2023-03-11T11:17:00.830Z,1.23
2023-03-11T11:20:13.224Z,2.87
2023-03-11T11:23:26.959Z,1.75
2023-03-11T11:26:28.603Z,3.00
2023-03-11T11:29:30.324Z,1.15
2023-03-11T11:32:32.041Z,1.40
2023-03-11T11:35:34.393Z,1.17
2023-03-11T11:38:36.090Z,1.10
2023-03-11T11:41:38.135Z,1.30
2023-03-11T11:44:42.612Z,1.20
2023-03-11T11:47:48.616Z,0.90
2023-03-11T11:50:58.973Z,0.77
2023-03-11T11:54:24.333Z,1.80
2023-03-11T11:57:26.312Z,2.37
2023-03-11T12:00:44.008Z,1.50
2023-03-11T12:04:20.180Z,2.25
2023-03-11T12:07:37.563Z,1.33
2023-03-11T12:11:08.458Z,1.52
2023-03-11T12:14:26.877Z,0.90
2023-03-11T12:17:30.580Z,1.20
2023-03-11T12:20:42.559Z,1.00
2023-03-11T12:24:00.511Z,1.95
2023-03-11T12:27:23.124Z,1.00
2023-03-11T12:30:33.063Z,2.53
2023-03-11T12:33:39.777Z,2.30
2023-03-11T12:36:44.011Z,1.33
2023-03-11T12:39:45.825Z,1.20
2023-03-11T12:42:47.478Z,1.20
2023-03-11T12:45:55.749Z,0.95
2023-03-11T12:49:14.185Z,1.50
2023-03-11T12:52:22.996Z,2.35
2023-03-11T12:55:30.180Z,1.65
2023-03-11T12:58:43.508Z,2.20
2023-03-11T13:01:58.172Z,1.85
2023-03-11T13:05:14.454Z,1.12
2023-03-11T13:08:16.922Z,1.40
2023-03-11T13:11:33.939Z,1.75
2023-03-11T13:14:36.177Z,1.00
2023-03-11T13:17:37.948Z,1.00
2023-03-11T13:20:41.526Z,1.10
2023-03-11T13:23:43.355Z,1.20
2023-03-11T13:27:11.007Z,1.40
2023-03-11T13:30:22.391Z,1.00
2023-03-11T13:33:46.465Z,1.30
2023-03-11T13:37:00.453Z,1.10
2023-03-11T13:40:31.998Z,1.42
2023-03-11T13:43:35.405Z,1.75
2023-03-11T13:46:40.383Z,2.53
2023-03-11T13:50:14.713Z,1.35
2023-03-11T13:53:40.056Z,1.15
2023-03-11T13:56:49.540Z,3.15
2023-03-11T13:59:56.214Z,9.07
2023-03-11T14:03:02.257Z,2.60
2023-03-11T14:06:09.013Z,1.75
2023-03-11T14:09:19.794Z,1.40
2023-03-11T14:12:21.561Z,4.00
2023-03-11T14:15:26.888Z,1.80
2023-03-11T14:18:35.845Z,3.75
2023-03-11T14:21:42.938Z,11.45
2023-03-11T14:24:48.367Z,2.37
2023-03-11T14:27:57.021Z,2.28
2023-03-11T14:31:01.249Z,1.27
2023-03-11T14:34:18.325Z,1.23
2023-03-11T14:37:38.154Z,1.43
2023-03-11T14:40:42.329Z,2.20
2023-03-11T14:43:52.779Z,1.75
2023-03-11T14:47:05.898Z,1.80
2023-03-11T14:50:19.550Z,1.65
2023-03-11T14:53:43.230Z,1.67
2023-03-11T14:56:51.798Z,1.58
2023-03-11T14:59:55.854Z,1.52
2023-03-11T15:03:31.708Z,1.00
2023-03-11T15:06:36.038Z,1.10
2023-03-11T15:09:40.692Z,1.00
2023-03-11T15:12:45.662Z,1.10
2023-03-11T15:15:59.865Z,1.40
2023-03-11T15:19:24.697Z,1.20
2023-03-11T15:22:32.995Z,2.10
2023-03-11T15:25:39.052Z,1.42
2023-03-11T15:28:41.250Z,1.10
2023-03-11T15:31:46.961Z,2.37
2023-03-11T15:35:00.227Z,1.80
2023-03-11T15:38:13.926Z,1.60
2023-03-11T15:41:15.860Z,1.60
2023-03-11T15:44:50.008Z,1.62
2023-03-11T15:47:51.863Z,1.58
2023-03-11T15:50:56.865Z,1.60
2023-03-11T15:53:58.821Z,2.80
2023-03-11T15:57:01.470Z,1.52
2023-03-11T16:00:05.469Z,4.72
2023-03-11T16:03:07.829Z,1.50
2023-03-11T16:06:09.736Z,2.55
2023-03-11T16:09:12.909Z,2.10
2023-03-11T16:12:18.630Z,1.40
2023-03-11T16:15:30.703Z,1.60
2023-03-11T16:18:33.839Z,2.65
2023-03-11T16:21:43.390Z,2.20
2023-03-11T16:24:48.314Z,4.47
2023-03-11T16:27:52.057Z,2.20
2023-03-11T16:30:53.968Z,3.10
2023-03-11T16:33:58.229Z,2.28
2023-03-11T16:37:00.319Z,1.50
2023-03-11T16:40:02.891Z,1.70
2023-03-11T16:43:10.848Z,1.42
2023-03-11T16:46:13.245Z,1.40
2023-03-11T16:49:15.485Z,1.70
2023-03-11T16:52:20.997Z,1.60
2023-03-11T16:55:27.294Z,1.50
2023-03-11T16:58:29.759Z,1.87
2023-03-11T17:01:32.176Z,2.17
2023-03-11T17:04:34.135Z,1.90
2023-03-11T17:07:39.429Z,1.80
2023-03-11T17:10:44.296Z,2.20
2023-03-11T17:13:46.607Z,2.00
2023-03-11T17:16:49.679Z,2.22
2023-03-11T17:19:51.571Z,2.22
2023-03-11T17:22:53.925Z,2.40
2023-03-11T17:25:56.018Z,2.00
2023-03-11T17:28:58.115Z,1.80
2023-03-11T17:32:01.421Z,1.77
2023-03-11T17:35:04.146Z,1.85
2023-03-11T17:38:06.376Z,1.83
2023-03-11T17:41:09.776Z,2.30
2023-03-11T17:44:13.768Z,1.92
2023-03-11T17:47:21.865Z,2.30
2023-03-11T17:50:26.682Z,2.40
2023-03-11T17:53:28.485Z,2.25
2023-03-11T17:56:31.084Z,2.78
2023-03-11T17:59:33.820Z,2.37
2023-03-11T18:02:54.613Z,2.45
2023-03-11T18:06:08.600Z,2.10
2023-03-11T18:09:11.228Z,2.55
2023-03-11T18:12:13.401Z,2.20
2023-03-11T18:15:20.764Z,2.20
2023-03-11T18:18:23.222Z,2.40
2023-03-11T18:21:31.349Z,2.30
2023-03-11T18:24:33.721Z,2.67
2023-03-11T18:27:38.349Z,2.10
2023-03-11T18:30:40.956Z,2.33
2023-03-11T18:33:48.577Z,2.05
2023-03-11T18:39:53.731Z,1.95
2023-03-11T18:42:56.226Z,1.92
2023-03-11T18:46:01.527Z,1.73
2023-03-11T18:49:05.637Z,2.37
2023-03-11T18:52:07.651Z,2.05
2023-03-11T18:55:10.048Z,2.05
2023-03-11T18:58:15.196Z,2.03
2023-03-11T19:01:21.873Z,1.90
2023-03-11T19:04:24.574Z,2.42
2023-03-11T19:07:29.849Z,1.90
2023-03-11T19:10:33.644Z,1.85
2023-03-11T19:13:46.559Z,2.60
2023-03-11T19:16:51.006Z,2.05
2023-03-11T19:19:53.591Z,1.95
2023-03-11T19:22:55.793Z,1.90
2023-03-11T19:26:03.675Z,2.05
2023-03-11T19:29:06.141Z,2.40
2023-03-11T19:32:08.252Z,2.30
2023-03-11T19:35:14.974Z,1.98
2023-03-11T19:38:17.197Z,2.23
2023-03-11T19:41:20.799Z,2.40
2023-03-11T19:44:23.607Z,2.22
2023-03-11T19:47:26.574Z,2.25
2023-03-11T19:50:29.228Z,2.35
2023-03-11T19:53:31.898Z,2.40
2023-03-11T19:56:34.608Z,2.10
2023-03-11T19:59:37.214Z,2.40
2023-03-11T20:02:39.793Z,2.30
2023-03-11T20:05:47.460Z,2.15
2023-03-11T20:08:50.556Z,2.67
2023-03-11T20:11:52.428Z,2.42
2023-03-11T20:14:54.597Z,2.25
2023-03-11T20:17:57.239Z,2.12
2023-03-11T20:21:03.560Z,2.40
2023-03-11T20:24:11.416Z,2.40
2023-03-11T20:27:14.342Z,2.37
2023-03-11T20:30:20.178Z,3.05
2023-03-11T20:33:22.666Z,3.08
2023-03-11T20:36:28.036Z,3.40
2023-03-11T20:39:30.676Z,3.17
2023-03-11T20:42:33.421Z,2.62
2023-03-11T20:45:37.613Z,2.60
2023-03-11T20:48:42.627Z,2.53
2023-03-11T20:51:48.434Z,3.20
2023-03-11T20:54:51.361Z,2.83
2023-03-11T20:57:54.595Z,2.65
2023-03-11T21:00:57.310Z,2.85
2023-03-11T21:04:02.488Z,3.03
2023-03-11T21:07:05.681Z,2.40
2023-03-11T21:10:11.325Z,2.67
2023-03-11T21:13:13.505Z,2.60
2023-03-11T21:16:17.242Z,2.70
2023-03-11T21:19:22.569Z,2.95
2023-03-11T21:22:25.684Z,3.20
2023-03-11T21:25:28.723Z,2.83
2023-03-11T21:28:31.329Z,2.72
2023-03-11T21:31:34.197Z,2.90
2023-03-11T21:34:36.136Z,3.12
2023-03-11T21:37:39.685Z,2.40
2023-03-11T21:40:41.628Z,2.47
2023-03-11T21:43:44.144Z,3.25
2023-03-11T21:46:46.212Z,2.95
2023-03-11T21:49:48.154Z,2.78
2023-03-11T21:52:49.874Z,2.70
2023-03-11T21:55:53.068Z,2.50
2023-03-11T21:58:54.892Z,2.47
2023-03-11T22:02:01.364Z,2.58
2023-03-11T22:05:03.326Z,2.23
2023-03-11T22:08:05.240Z,2.00
2023-03-11T22:11:09.515Z,2.50
2023-03-11T22:14:11.507Z,2.62
2023-03-11T22:17:13.330Z,2.50
2023-03-11T22:20:15.986Z,2.60
2023-03-11T22:23:17.676Z,2.30
2023-03-11T22:26:19.400Z,2.70
2023-03-11T22:29:21.080Z,2.45
2023-03-11T22:32:22.863Z,2.53
2023-03-11T22:35:24.615Z,2.70
2023-03-11T22:38:26.243Z,2.72
2023-03-11T22:41:28.012Z,2.00
2023-03-11T22:44:29.684Z,2.62
2023-03-11T22:47:31.726Z,2.37
2023-03-11T22:50:33.390Z,2.87
2023-03-11T22:53:35.106Z,3.20
2023-03-11T22:56:36.809Z,2.28
2023-03-11T22:59:38.536Z,2.12
2023-03-11T23:02:40.186Z,2.85
2023-03-11T23:05:42.377Z,2.97
2023-03-11T23:08:44.639Z,2.50
2023-03-11T23:11:46.315Z,2.40
2023-03-11T23:14:47.959Z,1.90
2023-03-11T23:17:49.746Z,2.55
2023-03-11T23:20:51.977Z,2.53
2023-03-11T23:23:54.546Z,2.12
2023-03-11T23:26:56.280Z,2.08
2023-03-11T23:29:58.370Z,2.53
2023-03-11T23:33:02.904Z,2.50
2023-03-11T23:36:08.489Z,2.62
2023-03-11T23:39:10.144Z,2.78
2023-03-11T23:42:24.551Z,2.40
2023-03-11T23:45:27.481Z,2.67
2023-03-11T23:48:29.269Z,2.25
2023-03-11T23:51:31.012Z,2.67
2023-03-11T23:54:32.685Z,2.53
2023-03-11T23:57:37.859Z,2.30
